Gdf Suez North Sea — HPSQ — position and weather

sailwx.info

Track history (hours):
 
Tides and Currents Weather Stations Pressure Air Temp Water Temp Dewpoint Dewpoint Depression Visibility Wind Speed Wind Dir Waves Ship Positions

Gdf Suez North Sea

Last reported at 2015-Jul-26 03:32 UTC. Time now 2015-Aug-04 22:01 UTC.
Position N 25°31' E 052°10'.
Warning: this ship's position is 9 days out of date.

Length 190 m; draft 11.7 m.

Type: Ship. MMSI: 373341000.

Date/timePositionNaut miles runAvg speedWind from/ knotsBaromVisibWave heightAir tempDewpointWater temp
2015-Jul-26 03:32N 25°31' E 052°10'1610.8
2015-Jul-26 02:06N 25°43' E 052°21'711.0
2015-Jul-26 01:30N 25°48' E 052°25'1011.1
2015-Jul-26 00:33N 25°57' E 052°31'1111.2
2015-Jul-25 23:33N 26°07' E 052°37'1211.6
2015-Jul-25 22:32N 26°17' E 052°44'13 9.7
2015-Jul-25 21:12N 26°22' E 052°57'2111.0
2015-Jul-25 19:17N 26°22' E 053°21'910.8
2015-Jul-25 18:26N 26°22' E 053°31'1011.4
2015-Jul-25 17:32N 26°22' E 053°43'1212.0
2015-Jul-25 16:31N 26°22' E 053°57'1211.7
2015-Jul-25 15:29N 26°22' E 054°10'  
Track history (hours):
 
Tides and Currents Weather Stations Pressure Air Temp Water Temp Dewpoint Dewpoint Depression Visibility Wind Speed Wind Dir Waves Ship Positions

Gdf Suez North Sea

Last reported at 2015-Jul-26 03:32 UTC. Time now 2015-Aug-04 22:01 UTC.
Position N 25°31' E 052°10'.
Warning: this ship's position is 9 days out of date.

Length 190 m; draft 11.7 m.

Type: Ship. MMSI: 373341000.

Date/timePositionNaut miles runAvg speedWind from/ knotsBaromVisibWave heightAir tempDewpointWater temp
2015-Jul-26 03:32N 25°31' E 052°10'1610.8
2015-Jul-26 02:06N 25°43' E 052°21'711.0
2015-Jul-26 01:30N 25°48' E 052°25'1011.1
2015-Jul-26 00:33N 25°57' E 052°31'1111.2
2015-Jul-25 23:33N 26°07' E 052°37'1211.6
2015-Jul-25 22:32N 26°17' E 052°44'13 9.7
2015-Jul-25 21:12N 26°22' E 052°57'2111.0
2015-Jul-25 19:17N 26°22' E 053°21'910.8
2015-Jul-25 18:26N 26°22' E 053°31'1011.4
2015-Jul-25 17:32N 26°22' E 053°43'1212.0
2015-Jul-25 16:31N 26°22' E 053°57'1211.7
2015-Jul-25 15:29N 26°22' E 054°10'  

Dump ship's entire track history